Terminal Aerodrome Forecast
Issued by NWS Binghamton, NY

Home | Current Version | Previous Version | Text Only | Print | Product List | Glossary On
Versions: 1 2 3 4 5 6 7 8 9 10 11 12 13 14 15 16 17 18 19 20
000
FTUS41 KBGM 251736
TAFSYR
TAF
KSYR 251736Z 2518/2618 19014G20KT P6SM -SHRA SCT025 BKN035 OVC050
      WS020/22035KT
     FM252000 23009G18KT P6SM BKN040
     FM260000 26008KT P6SM SCT250
     FM261500 26010G18KT P6SM FEW200=

USA.gov is the U.S. government's official web portal to all federal, state and local government web resources and services.